<?xml version="1.0" encoding="UTF-8" standalone="no" ?>
<gpx xmlns="http://www.topografix.com/GPX/1/1" xmlns:xsi="http://www.w3.org/2001/XMLSchema-instance" xsi:schemaLocation="http://www.topografix.com/GPX/1/1 http://www.topografix.com/GPX/1/1/gpx.xsd" version="1.1" creator="VisuGPX - https://www.visugpx.com">
  <metadata>
    <name>Mont Autcellier, descente par les Tiecs et Saint-Sauveur.</name>
    <desc><![CDATA[Classique mais descente exceptionnelle. ]]></desc>
  </metadata>
  <trk>
    <name><![CDATA[ACTIVE LOG 001]]></name>
    <trkseg>
      <trkpt lat="44.10186" lon="7.08758">
        <ele>1367.1320801</ele>
        <time>2012-09-15T06:30:01Z</time>
      </trkpt>
      <trkpt lat="44.10256" lon="7.08606">
        <ele>1379.1484375</ele>
        <time>2012-09-15T06:33:21Z</time>
      </trkpt>
      <trkpt lat="44.10332" lon="7.08576">
        <ele>1385.8776855</ele>
        <time>2012-09-15T06:34:07Z</time>
      </trkpt>
      <trkpt lat="44.10394" lon="7.08513">
        <ele>1394.0490723</ele>
        <time>2012-09-15T06:34:57Z</time>
      </trkpt>
      <trkpt lat="44.10524" lon="7.08302">
        <ele>1416.6398926</ele>
        <time>2012-09-15T06:37:11Z</time>
      </trkpt>
      <trkpt lat="44.10527" lon="7.08298">
        <ele>1417.1206055</ele>
        <time>2012-09-15T06:37:14Z</time>
      </trkpt>
      <trkpt lat="44.10625" lon="7.08036">
        <ele>1444.5180664</ele>
        <time>2012-09-15T06:40:33Z</time>
      </trkpt>
      <trkpt lat="44.10676" lon="7.07859">
        <ele>1459.8991699</ele>
        <time>2012-09-15T06:43:42Z</time>
      </trkpt>
      <trkpt lat="44.10699" lon="7.07777">
        <ele>1462.3024902</ele>
        <time>2012-09-15T06:44:12Z</time>
      </trkpt>
      <trkpt lat="44.10691" lon="7.07732">
        <ele>1466.1477051</ele>
        <time>2012-09-15T06:44:33Z</time>
      </trkpt>
      <trkpt lat="44.10704" lon="7.07678">
        <ele>1471.4350586</ele>
        <time>2012-09-15T06:45:04Z</time>
      </trkpt>
      <trkpt lat="44.10772" lon="7.07491">
        <ele>1495.9487305</ele>
        <time>2012-09-15T06:47:01Z</time>
      </trkpt>
      <trkpt lat="44.10746" lon="7.07509">
        <ele>1500.2749023</ele>
        <time>2012-09-15T06:48:10Z</time>
      </trkpt>
      <trkpt lat="44.10698" lon="7.07578">
        <ele>1507.4846191</ele>
        <time>2012-09-15T06:49:02Z</time>
      </trkpt>
      <trkpt lat="44.10619" lon="7.07673">
        <ele>1513.7329102</ele>
        <time>2012-09-15T06:50:12Z</time>
      </trkpt>
      <trkpt lat="44.10551" lon="7.07855">
        <ele>1531.517334</ele>
        <time>2012-09-15T06:52:01Z</time>
      </trkpt>
      <trkpt lat="44.10511" lon="7.07937">
        <ele>1535.362793</ele>
        <time>2012-09-15T06:52:49Z</time>
      </trkpt>
      <trkpt lat="44.10395" lon="7.08052">
        <ele>1550.2634277</ele>
        <time>2012-09-15T06:54:31Z</time>
      </trkpt>
      <trkpt lat="44.10301" lon="7.08114">
        <ele>1560.8376465</ele>
        <time>2012-09-15T06:55:48Z</time>
      </trkpt>
      <trkpt lat="44.1021" lon="7.08201">
        <ele>1577.6606445</ele>
        <time>2012-09-15T06:57:16Z</time>
      </trkpt>
      <trkpt lat="44.10206" lon="7.08185">
        <ele>1579.583252</ele>
        <time>2012-09-15T06:57:29Z</time>
      </trkpt>
      <trkpt lat="44.10256" lon="7.08078">
        <ele>1587.2739258</ele>
        <time>2012-09-15T06:58:43Z</time>
      </trkpt>
      <trkpt lat="44.10323" lon="7.07999">
        <ele>1593.5224609</ele>
        <time>2012-09-15T06:59:45Z</time>
      </trkpt>
      <trkpt lat="44.10376" lon="7.0789">
        <ele>1600.7324219</ele>
        <time>2012-09-15T07:00:48Z</time>
      </trkpt>
      <trkpt lat="44.104" lon="7.07817">
        <ele>1604.5776367</ele>
        <time>2012-09-15T07:01:26Z</time>
      </trkpt>
      <trkpt lat="44.1043" lon="7.07626">
        <ele>1618.0361328</ele>
        <time>2012-09-15T07:03:03Z</time>
      </trkpt>
      <trkpt lat="44.10538" lon="7.07371">
        <ele>1634.859375</ele>
        <time>2012-09-15T07:05:22Z</time>
      </trkpt>
      <trkpt lat="44.10631" lon="7.07181">
        <ele>1646.8757324</ele>
        <time>2012-09-15T07:07:09Z</time>
      </trkpt>
      <trkpt lat="44.10662" lon="7.07066">
        <ele>1654.5661621</ele>
        <time>2012-09-15T07:08:11Z</time>
      </trkpt>
      <trkpt lat="44.10696" lon="7.06915">
        <ele>1661.7763672</ele>
        <time>2012-09-15T07:09:27Z</time>
      </trkpt>
      <trkpt lat="44.10806" lon="7.06697">
        <ele>1676.6767578</ele>
        <time>2012-09-15T07:11:31Z</time>
      </trkpt>
      <trkpt lat="44.10867" lon="7.06582">
        <ele>1681.4831543</ele>
        <time>2012-09-15T07:12:33Z</time>
      </trkpt>
      <trkpt lat="44.10849" lon="7.06538">
        <ele>1681.9638672</ele>
        <time>2012-09-15T07:12:52Z</time>
      </trkpt>
      <trkpt lat="44.10805" lon="7.06491">
        <ele>1681.4831543</ele>
        <time>2012-09-15T07:13:19Z</time>
      </trkpt>
      <trkpt lat="44.10814" lon="7.06477">
        <ele>1690.7734375</ele>
      </trkpt>
      <trkpt lat="44.10905" lon="7.06398">
        <ele>1683.9296875</ele>
      </trkpt>
      <trkpt lat="44.10934" lon="7.06276">
        <ele>1706.9580078</ele>
        <time>2012-09-15T07:23:36Z</time>
      </trkpt>
      <trkpt lat="44.11047" lon="7.06088">
        <ele>1722.8198242</ele>
        <time>2012-09-15T07:25:54Z</time>
      </trkpt>
      <trkpt lat="44.11126" lon="7.05892">
        <ele>1739.6428223</ele>
        <time>2012-09-15T07:28:09Z</time>
      </trkpt>
      <trkpt lat="44.11159" lon="7.05848">
        <ele>1749.2561035</ele>
        <time>2012-09-15T07:29:16Z</time>
      </trkpt>
      <trkpt lat="44.11191" lon="7.05809">
        <ele>1755.0239258</ele>
        <time>2012-09-15T07:29:57Z</time>
      </trkpt>
      <trkpt lat="44.11193" lon="7.05807">
        <ele>1755.0239258</ele>
        <time>2012-09-15T07:29:59Z</time>
      </trkpt>
      <trkpt lat="44.11226" lon="7.05723">
        <ele>1773.7697754</ele>
        <time>2012-09-15T07:31:51Z</time>
      </trkpt>
      <trkpt lat="44.11249" lon="7.05672">
        <ele>1780.0183105</ele>
        <time>2012-09-15T07:32:46Z</time>
      </trkpt>
      <trkpt lat="44.11256" lon="7.05633">
        <ele>1789.1508789</ele>
        <time>2012-09-15T07:33:39Z</time>
      </trkpt>
      <trkpt lat="44.11439" lon="7.0542">
        <ele>1830.0068359</ele>
        <time>2012-09-15T07:39:16Z</time>
      </trkpt>
      <trkpt lat="44.11482" lon="7.054">
        <ele>1847.3105469</ele>
        <time>2012-09-15T07:41:16Z</time>
      </trkpt>
      <trkpt lat="44.11499" lon="7.05374">
        <ele>1852.5979004</ele>
        <time>2012-09-15T07:41:57Z</time>
      </trkpt>
      <trkpt lat="44.11525" lon="7.0537">
        <ele>1862.6916504</ele>
        <time>2012-09-15T07:54:04Z</time>
      </trkpt>
      <trkpt lat="44.11557" lon="7.05353">
        <ele>1871.3435059</ele>
        <time>2012-09-15T07:55:01Z</time>
      </trkpt>
      <trkpt lat="44.11578" lon="7.0532">
        <ele>1880.4760742</ele>
        <time>2012-09-15T07:56:02Z</time>
      </trkpt>
      <trkpt lat="44.11582" lon="7.05315">
        <ele>1881.4372559</ele>
        <time>2012-09-15T07:56:11Z</time>
      </trkpt>
      <trkpt lat="44.11615" lon="7.05276">
        <ele>1888.166748</ele>
        <time>2012-09-15T07:57:08Z</time>
      </trkpt>
      <trkpt lat="44.11704" lon="7.05184">
        <ele>1899.7023926</ele>
        <time>2012-09-15T07:59:17Z</time>
      </trkpt>
      <trkpt lat="44.11756" lon="7.05079">
        <ele>1908.8349609</ele>
        <time>2012-09-15T08:00:54Z</time>
      </trkpt>
      <trkpt lat="44.11801" lon="7.05033">
        <ele>1917.9675293</ele>
        <time>2012-09-15T08:02:02Z</time>
      </trkpt>
      <trkpt lat="44.11847" lon="7.0499">
        <ele>1922.7741699</ele>
        <time>2012-09-15T08:02:53Z</time>
      </trkpt>
      <trkpt lat="44.11918" lon="7.04961">
        <ele>1933.8293457</ele>
        <time>2012-09-15T08:04:09Z</time>
      </trkpt>
      <trkpt lat="44.11947" lon="7.04916">
        <ele>1947.7683105</ele>
        <time>2012-09-15T08:05:37Z</time>
      </trkpt>
      <trkpt lat="44.11984" lon="7.04868">
        <ele>1957.8623047</ele>
        <time>2012-09-15T08:07:08Z</time>
      </trkpt>
      <trkpt lat="44.11991" lon="7.04855">
        <ele>1959.784668</ele>
        <time>2012-09-15T08:07:27Z</time>
      </trkpt>
      <trkpt lat="44.12024" lon="7.04793">
        <ele>1965.5529785</ele>
        <time>2012-09-15T08:08:44Z</time>
      </trkpt>
      <trkpt lat="44.12087" lon="7.0477">
        <ele>1981.4145508</ele>
        <time>2012-09-15T08:10:46Z</time>
      </trkpt>
      <trkpt lat="44.12143" lon="7.04777">
        <ele>1997.2763672</ele>
        <time>2012-09-15T08:12:36Z</time>
      </trkpt>
      <trkpt lat="44.12158" lon="7.04779">
        <ele>2000.6408691</ele>
        <time>2012-09-15T08:12:58Z</time>
      </trkpt>
      <trkpt lat="44.1227" lon="7.04816">
        <ele>2018.425293</ele>
        <time>2012-09-15T08:15:27Z</time>
      </trkpt>
      <trkpt lat="44.12323" lon="7.04807">
        <ele>2028.0385742</ele>
        <time>2012-09-15T08:16:43Z</time>
      </trkpt>
      <trkpt lat="44.1234" lon="7.04805">
        <ele>2030.4418945</ele>
        <time>2012-09-15T08:17:04Z</time>
      </trkpt>
      <trkpt lat="44.12499" lon="7.04669">
        <ele>2054.4746094</ele>
        <time>2012-09-15T08:20:28Z</time>
      </trkpt>
      <trkpt lat="44.1255" lon="7.04608">
        <ele>2070.8171387</ele>
        <time>2012-09-15T08:23:23Z</time>
      </trkpt>
      <trkpt lat="44.12582" lon="7.04473">
        <ele>2095.8115234</ele>
        <time>2012-09-15T08:25:56Z</time>
      </trkpt>
      <trkpt lat="44.12593" lon="7.04408">
        <ele>2102.0598145</ele>
        <time>2012-09-15T08:26:53Z</time>
      </trkpt>
      <trkpt lat="44.12633" lon="7.04345">
        <ele>2110.2312012</ele>
        <time>2012-09-15T08:28:06Z</time>
      </trkpt>
      <trkpt lat="44.12687" lon="7.04315">
        <ele>2122.2475586</ele>
        <time>2012-09-15T08:29:29Z</time>
      </trkpt>
      <trkpt lat="44.1273" lon="7.04304">
        <ele>2129.4575195</ele>
        <time>2012-09-15T08:30:26Z</time>
      </trkpt>
      <trkpt lat="44.12743" lon="7.04293">
        <ele>2132.3415527</ele>
        <time>2012-09-15T08:31:39Z</time>
      </trkpt>
      <trkpt lat="44.12784" lon="7.04294">
        <ele>2141.4741211</ele>
        <time>2012-09-15T08:32:35Z</time>
      </trkpt>
      <trkpt lat="44.12802" lon="7.04287">
        <ele>2143.8774414</ele>
        <time>2012-09-15T08:32:57Z</time>
      </trkpt>
      <trkpt lat="44.12842" lon="7.043">
        <ele>2149.6452637</ele>
        <time>2012-09-15T08:33:42Z</time>
      </trkpt>
      <trkpt lat="44.1287" lon="7.04273">
        <ele>2155.8935547</ele>
        <time>2012-09-15T08:34:43Z</time>
      </trkpt>
      <trkpt lat="44.12913" lon="7.04302">
        <ele>2172.717041</ele>
        <time>2012-09-15T08:36:25Z</time>
      </trkpt>
      <trkpt lat="44.1295" lon="7.04262">
        <ele>2191.4626465</ele>
        <time>2012-09-15T08:38:49Z</time>
      </trkpt>
      <trkpt lat="44.12966" lon="7.04264">
        <ele>2196.2692871</ele>
        <time>2012-09-15T08:39:38Z</time>
      </trkpt>
      <trkpt lat="44.1301" lon="7.04267">
        <ele>2204.9211426</ele>
        <time>2012-09-15T08:54:57Z</time>
      </trkpt>
      <trkpt lat="44.12995" lon="7.04293">
        <ele>2199.1530762</ele>
        <time>2012-09-15T09:11:01Z</time>
      </trkpt>
      <trkpt lat="44.12981" lon="7.04309">
        <ele>2191.9433594</ele>
        <time>2012-09-15T09:11:11Z</time>
      </trkpt>
      <trkpt lat="44.12926" lon="7.04327">
        <ele>2173.1977539</ele>
        <time>2012-09-15T09:11:45Z</time>
      </trkpt>
      <trkpt lat="44.12862" lon="7.0431">
        <ele>2157.3359375</ele>
        <time>2012-09-15T09:12:17Z</time>
      </trkpt>
      <trkpt lat="44.1285" lon="7.0428">
        <ele>2154.932373</ele>
        <time>2012-09-15T09:12:43Z</time>
      </trkpt>
      <trkpt lat="44.12832" lon="7.04311">
        <ele>2153.4904785</ele>
        <time>2012-09-15T09:13:11Z</time>
      </trkpt>
      <trkpt lat="44.12782" lon="7.04327">
        <ele>2146.7612305</ele>
        <time>2012-09-15T09:13:20Z</time>
      </trkpt>
      <trkpt lat="44.12609" lon="7.04399">
        <ele>2113.5957031</ele>
        <time>2012-09-15T09:14:25Z</time>
      </trkpt>
      <trkpt lat="44.12566" lon="7.04419">
        <ele>2101.0986328</ele>
        <time>2012-09-15T09:14:36Z</time>
      </trkpt>
      <trkpt lat="44.12578" lon="7.04498">
        <ele>2099.6567383</ele>
        <time>2012-09-15T09:14:38Z</time>
      </trkpt>
      <trkpt lat="44.12573" lon="7.04547">
        <ele>2091.0046387</ele>
        <time>2012-09-15T09:14:45Z</time>
      </trkpt>
      <trkpt lat="44.12559" lon="7.04602">
        <ele>2080.4304199</ele>
        <time>2012-09-15T09:14:56Z</time>
      </trkpt>
      <trkpt lat="44.12371" lon="7.04786">
        <ele>2042.458252</ele>
        <time>2012-09-15T09:15:46Z</time>
      </trkpt>
      <trkpt lat="44.12321" lon="7.04811">
        <ele>2037.6516113</ele>
        <time>2012-09-15T09:15:56Z</time>
      </trkpt>
      <trkpt lat="44.12267" lon="7.04819">
        <ele>2028.5192871</ele>
        <time>2012-09-15T09:16:05Z</time>
      </trkpt>
      <trkpt lat="44.12194" lon="7.04767">
        <ele>2020.8286133</ele>
        <time>2012-09-15T09:16:19Z</time>
      </trkpt>
      <trkpt lat="44.1216" lon="7.04808">
        <ele>2005.4475098</ele>
        <time>2012-09-15T09:16:42Z</time>
      </trkpt>
      <trkpt lat="44.12128" lon="7.04775">
        <ele>2001.6022949</ele>
        <time>2012-09-15T09:16:46Z</time>
      </trkpt>
      <trkpt lat="44.12148" lon="7.04824">
        <ele>1999.6796875</ele>
        <time>2012-09-15T09:16:49Z</time>
      </trkpt>
      <trkpt lat="44.12133" lon="7.04841">
        <ele>1996.7956543</ele>
        <time>2012-09-15T09:16:53Z</time>
      </trkpt>
      <trkpt lat="44.12097" lon="7.04776">
        <ele>1993.9116211</ele>
        <time>2012-09-15T09:16:55Z</time>
      </trkpt>
      <trkpt lat="44.12032" lon="7.04792">
        <ele>1978.0498047</ele>
        <time>2012-09-15T09:17:17Z</time>
      </trkpt>
      <trkpt lat="44.11978" lon="7.04885">
        <ele>1967.4753418</ele>
        <time>2012-09-15T09:17:59Z</time>
      </trkpt>
      <trkpt lat="44.11943" lon="7.04927">
        <ele>1955.4589844</ele>
        <time>2012-09-15T09:18:26Z</time>
      </trkpt>
      <trkpt lat="44.11927" lon="7.04963">
        <ele>1946.8068848</ele>
        <time>2012-09-15T09:18:57Z</time>
      </trkpt>
      <trkpt lat="44.11894" lon="7.04953">
        <ele>1943.9230957</ele>
        <time>2012-09-15T09:20:13Z</time>
      </trkpt>
      <trkpt lat="44.11808" lon="7.05011">
        <ele>1934.3100586</ele>
        <time>2012-09-15T09:20:29Z</time>
      </trkpt>
      <trkpt lat="44.11779" lon="7.05035">
        <ele>1928.5419922</ele>
        <time>2012-09-15T09:20:38Z</time>
      </trkpt>
      <trkpt lat="44.11717" lon="7.05139">
        <ele>1917.4868164</ele>
        <time>2012-09-15T09:21:05Z</time>
      </trkpt>
      <trkpt lat="44.11614" lon="7.05271">
        <ele>1902.1057129</ele>
        <time>2012-09-15T09:22:44Z</time>
      </trkpt>
      <trkpt lat="44.11583" lon="7.05317">
        <ele>1895.8571777</ele>
        <time>2012-09-15T09:22:57Z</time>
      </trkpt>
      <trkpt lat="44.11563" lon="7.05347">
        <ele>1888.6474609</ele>
        <time>2012-09-15T09:23:09Z</time>
      </trkpt>
      <trkpt lat="44.11506" lon="7.05383">
        <ele>1874.708252</ele>
        <time>2012-09-15T09:25:06Z</time>
      </trkpt>
      <trkpt lat="44.11503" lon="7.05373">
        <ele>1870.8630371</ele>
        <time>2012-09-15T09:25:13Z</time>
      </trkpt>
      <trkpt lat="44.11483" lon="7.05405">
        <ele>1864.1335449</ele>
        <time>2012-09-15T09:26:15Z</time>
      </trkpt>
      <trkpt lat="44.1147" lon="7.05399">
        <ele>1861.2497559</ele>
        <time>2012-09-15T09:26:28Z</time>
      </trkpt>
      <trkpt lat="44.11442" lon="7.05423">
        <ele>1848.7524414</ele>
        <time>2012-09-15T09:26:46Z</time>
      </trkpt>
      <trkpt lat="44.11376" lon="7.05517">
        <ele>1826.1616211</ele>
        <time>2012-09-15T09:29:00Z</time>
      </trkpt>
      <trkpt lat="44.11323" lon="7.05568">
        <ele>1819.9128418</ele>
        <time>2012-09-15T09:29:21Z</time>
      </trkpt>
      <trkpt lat="44.1131" lon="7.05581">
        <ele>1815.1064453</ele>
        <time>2012-09-15T09:29:29Z</time>
      </trkpt>
      <trkpt lat="44.11283" lon="7.05615">
        <ele>1810.7805176</ele>
        <time>2012-09-15T09:29:45Z</time>
      </trkpt>
      <trkpt lat="44.1126" lon="7.05657">
        <ele>1805.4934082</ele>
        <time>2012-09-15T09:30:03Z</time>
      </trkpt>
      <trkpt lat="44.11256" lon="7.05682">
        <ele>1801.1672363</ele>
        <time>2012-09-15T09:30:11Z</time>
      </trkpt>
      <trkpt lat="44.11225" lon="7.05729">
        <ele>1794.4379883</ele>
        <time>2012-09-15T09:30:26Z</time>
      </trkpt>
      <trkpt lat="44.11115" lon="7.05904">
        <ele>1760.7919922</ele>
        <time>2012-09-15T09:33:11Z</time>
      </trkpt>
      <trkpt lat="44.11045" lon="7.06085">
        <ele>1745.8916016</ele>
        <time>2012-09-15T09:33:41Z</time>
      </trkpt>
      <trkpt lat="44.1098" lon="7.06199">
        <ele>1737.239502</ele>
        <time>2012-09-15T09:34:06Z</time>
      </trkpt>
      <trkpt lat="44.10907" lon="7.064">
        <ele>1715.6101074</ele>
        <time>2012-09-15T09:34:45Z</time>
      </trkpt>
      <trkpt lat="44.1086" lon="7.06444">
        <ele>1709.842041</ele>
        <time>2012-09-15T09:35:04Z</time>
      </trkpt>
      <trkpt lat="44.10859" lon="7.06444">
        <ele>1707.9194336</ele>
        <time>2012-09-15T09:35:07Z</time>
      </trkpt>
      <trkpt lat="44.11017" lon="7.06324">
        <ele>1704.0742188</ele>
        <time>2012-09-15T09:36:21Z</time>
      </trkpt>
      <trkpt lat="44.11123" lon="7.06269">
        <ele>1702.1513672</ele>
        <time>2012-09-15T09:36:52Z</time>
      </trkpt>
      <trkpt lat="44.11147" lon="7.0624">
        <ele>1699.748291</ele>
        <time>2012-09-15T09:37:05Z</time>
      </trkpt>
      <trkpt lat="44.11184" lon="7.06201">
        <ele>1693.019043</ele>
        <time>2012-09-15T09:37:14Z</time>
      </trkpt>
      <trkpt lat="44.11261" lon="7.06113">
        <ele>1672.3505859</ele>
        <time>2012-09-15T09:37:32Z</time>
      </trkpt>
      <trkpt lat="44.11312" lon="7.06071">
        <ele>1659.3728027</ele>
        <time>2012-09-15T09:37:43Z</time>
      </trkpt>
      <trkpt lat="44.11329" lon="7.06062">
        <ele>1657.4501953</ele>
        <time>2012-09-15T09:37:46Z</time>
      </trkpt>
      <trkpt lat="44.11408" lon="7.06041">
        <ele>1640.6269531</ele>
        <time>2012-09-15T09:38:02Z</time>
      </trkpt>
      <trkpt lat="44.11565" lon="7.05957">
        <ele>1610.8261719</ele>
        <time>2012-09-15T09:38:45Z</time>
      </trkpt>
      <trkpt lat="44.11641" lon="7.0594">
        <ele>1594.9643555</ele>
        <time>2012-09-15T09:39:09Z</time>
      </trkpt>
      <trkpt lat="44.11842" lon="7.0588">
        <ele>1540.1694336</ele>
        <time>2012-09-15T09:40:05Z</time>
      </trkpt>
      <trkpt lat="44.11857" lon="7.05932">
        <ele>1537.2854004</ele>
        <time>2012-09-15T09:40:08Z</time>
      </trkpt>
      <trkpt lat="44.11861" lon="7.05949">
        <ele>1534.4016113</ele>
        <time>2012-09-15T09:40:12Z</time>
      </trkpt>
      <trkpt lat="44.11858" lon="7.05959">
        <ele>1532.9594727</ele>
        <time>2012-09-15T09:40:14Z</time>
      </trkpt>
      <trkpt lat="44.11857" lon="7.05965">
        <ele>1529.5947266</ele>
        <time>2012-09-15T09:40:16Z</time>
      </trkpt>
      <trkpt lat="44.11832" lon="7.06034">
        <ele>1519.0205078</ele>
        <time>2012-09-15T09:40:37Z</time>
      </trkpt>
      <trkpt lat="44.1178" lon="7.06095">
        <ele>1514.6943359</ele>
        <time>2012-09-15T09:41:00Z</time>
      </trkpt>
      <trkpt lat="44.1173" lon="7.06238">
        <ele>1495.4680176</ele>
        <time>2012-09-15T09:42:01Z</time>
      </trkpt>
      <trkpt lat="44.11704" lon="7.06271">
        <ele>1490.661377</ele>
        <time>2012-09-15T09:42:11Z</time>
      </trkpt>
      <trkpt lat="44.11715" lon="7.0628">
        <ele>1487.296875</ele>
        <time>2012-09-15T09:42:21Z</time>
      </trkpt>
      <trkpt lat="44.117" lon="7.06329">
        <ele>1477.6835938</ele>
        <time>2012-09-15T09:42:38Z</time>
      </trkpt>
      <trkpt lat="44.11736" lon="7.0638">
        <ele>1473.3579102</ele>
        <time>2012-09-15T09:42:59Z</time>
      </trkpt>
      <trkpt lat="44.11747" lon="7.06421">
        <ele>1469.0319824</ele>
        <time>2012-09-15T09:43:15Z</time>
      </trkpt>
      <trkpt lat="44.11737" lon="7.06446">
        <ele>1466.628418</ele>
        <time>2012-09-15T09:43:22Z</time>
      </trkpt>
      <trkpt lat="44.11677" lon="7.06545">
        <ele>1450.2861328</ele>
        <time>2012-09-15T09:43:40Z</time>
      </trkpt>
      <trkpt lat="44.11654" lon="7.06635">
        <ele>1438.7504883</ele>
        <time>2012-09-15T09:44:18Z</time>
      </trkpt>
      <trkpt lat="44.11656" lon="7.06668">
        <ele>1432.9821777</ele>
        <time>2012-09-15T09:44:24Z</time>
      </trkpt>
      <trkpt lat="44.11729" lon="7.06681">
        <ele>1419.5239258</ele>
        <time>2012-09-15T09:44:41Z</time>
      </trkpt>
      <trkpt lat="44.11744" lon="7.06713">
        <ele>1415.197998</ele>
        <time>2012-09-15T09:44:48Z</time>
      </trkpt>
      <trkpt lat="44.11632" lon="7.06907">
        <ele>1391.1650391</ele>
        <time>2012-09-15T09:45:28Z</time>
      </trkpt>
      <trkpt lat="44.11623" lon="7.06992">
        <ele>1382.5131836</ele>
        <time>2012-09-15T09:45:43Z</time>
      </trkpt>
      <trkpt lat="44.11589" lon="7.07099">
        <ele>1362.3254395</ele>
        <time>2012-09-15T09:46:11Z</time>
      </trkpt>
      <trkpt lat="44.116" lon="7.07209">
        <ele>1352.2314453</ele>
        <time>2012-09-15T09:46:57Z</time>
      </trkpt>
      <trkpt lat="44.1158" lon="7.07225">
        <ele>1343.0991211</ele>
        <time>2012-09-15T09:47:09Z</time>
      </trkpt>
      <trkpt lat="44.11575" lon="7.07314">
        <ele>1330.1213379</ele>
        <time>2012-09-15T09:47:30Z</time>
      </trkpt>
      <trkpt lat="44.11591" lon="7.07461">
        <ele>1316.6628418</ele>
        <time>2012-09-15T09:47:55Z</time>
      </trkpt>
      <trkpt lat="44.11598" lon="7.07506">
        <ele>1309.9335938</ele>
        <time>2012-09-15T09:48:04Z</time>
      </trkpt>
      <trkpt lat="44.11587" lon="7.07576">
        <ele>1295.513916</ele>
        <time>2012-09-15T09:48:21Z</time>
      </trkpt>
      <trkpt lat="44.11636" lon="7.07722">
        <ele>1277.2490234</ele>
        <time>2012-09-15T09:48:48Z</time>
      </trkpt>
      <trkpt lat="44.11647" lon="7.07764">
        <ele>1268.1162109</ele>
        <time>2012-09-15T09:48:58Z</time>
      </trkpt>
      <trkpt lat="44.11652" lon="7.07751">
        <ele>1265.2324219</ele>
        <time>2012-09-15T09:49:01Z</time>
      </trkpt>
      <trkpt lat="44.11657" lon="7.07768">
        <ele>1261.387207</ele>
        <time>2012-09-15T09:49:14Z</time>
      </trkpt>
      <trkpt lat="44.11665" lon="7.07774">
        <ele>1258.0224609</ele>
        <time>2012-09-15T09:49:21Z</time>
      </trkpt>
      <trkpt lat="44.11665" lon="7.07786">
        <ele>1253.6965332</ele>
        <time>2012-09-15T09:49:27Z</time>
      </trkpt>
      <trkpt lat="44.11686" lon="7.07783">
        <ele>1246.4868164</ele>
        <time>2012-09-15T09:49:39Z</time>
      </trkpt>
      <trkpt lat="44.1169" lon="7.07809">
        <ele>1239.7573242</ele>
        <time>2012-09-15T09:49:49Z</time>
      </trkpt>
      <trkpt lat="44.117" lon="7.07797">
        <ele>1235.9121094</ele>
        <time>2012-09-15T09:49:58Z</time>
      </trkpt>
      <trkpt lat="44.11703" lon="7.07822">
        <ele>1231.1057129</ele>
        <time>2012-09-15T09:50:07Z</time>
      </trkpt>
      <trkpt lat="44.11717" lon="7.07823">
        <ele>1219.5698242</ele>
        <time>2012-09-15T09:51:33Z</time>
      </trkpt>
      <trkpt lat="44.11719" lon="7.07818">
        <ele>1215.2438965</ele>
        <time>2012-09-15T09:51:39Z</time>
      </trkpt>
      <trkpt lat="44.11726" lon="7.07845">
        <ele>1208.0339355</ele>
        <time>2012-09-15T09:51:49Z</time>
      </trkpt>
      <trkpt lat="44.11772" lon="7.07884">
        <ele>1173.4265137</ele>
        <time>2012-09-15T09:55:31Z</time>
      </trkpt>
      <trkpt lat="44.11768" lon="7.07912">
        <ele>1166.2165527</ele>
        <time>2012-09-15T09:55:41Z</time>
      </trkpt>
      <trkpt lat="44.11697" lon="7.07996">
        <ele>1145.0673828</ele>
        <time>2012-09-15T09:56:11Z</time>
      </trkpt>
      <trkpt lat="44.1168" lon="7.08024">
        <ele>1136.8962402</ele>
        <time>2012-09-15T09:56:22Z</time>
      </trkpt>
      <trkpt lat="44.11689" lon="7.08045">
        <ele>1132.5705566</ele>
        <time>2012-09-15T09:56:36Z</time>
      </trkpt>
      <trkpt lat="44.117" lon="7.08037">
        <ele>1129.2055664</ele>
        <time>2012-09-15T09:56:43Z</time>
      </trkpt>
      <trkpt lat="44.11702" lon="7.08039">
        <ele>1127.2832031</ele>
        <time>2012-09-15T09:56:50Z</time>
      </trkpt>
      <trkpt lat="44.11685" lon="7.08052">
        <ele>1124.3991699</ele>
        <time>2012-09-15T09:58:09Z</time>
      </trkpt>
      <trkpt lat="44.11677" lon="7.08061">
        <ele>1119.1120605</ele>
        <time>2012-09-15T09:58:15Z</time>
      </trkpt>
      <trkpt lat="44.11703" lon="7.08069">
        <ele>1111.4213867</ele>
        <time>2012-09-15T09:58:27Z</time>
      </trkpt>
      <trkpt lat="44.11727" lon="7.08102">
        <ele>1094.1176758</ele>
        <time>2012-09-15T09:58:57Z</time>
      </trkpt>
      <trkpt lat="44.11722" lon="7.08111">
        <ele>1089.3110352</ele>
        <time>2012-09-15T09:59:02Z</time>
      </trkpt>
      <trkpt lat="44.11746" lon="7.0812">
        <ele>1084.5046387</ele>
        <time>2012-09-15T09:59:11Z</time>
      </trkpt>
      <trkpt lat="44.11739" lon="7.08133">
        <ele>1071.5266113</ele>
        <time>2012-09-15T10:02:09Z</time>
      </trkpt>
      <trkpt lat="44.11806" lon="7.08123">
        <ele>1059.5102539</ele>
        <time>2012-09-15T10:02:23Z</time>
      </trkpt>
      <trkpt lat="44.11809" lon="7.08145">
        <ele>1057.1069336</ele>
        <time>2012-09-15T10:02:27Z</time>
      </trkpt>
      <trkpt lat="44.11768" lon="7.08148">
        <ele>1055.1843262</ele>
        <time>2012-09-15T10:02:30Z</time>
      </trkpt>
      <trkpt lat="44.11727" lon="7.08197">
        <ele>1035.9577637</ele>
        <time>2012-09-15T10:02:53Z</time>
      </trkpt>
      <trkpt lat="44.11726" lon="7.08232">
        <ele>1033.0737305</ele>
        <time>2012-09-15T10:02:58Z</time>
      </trkpt>
      <trkpt lat="44.11662" lon="7.08326">
        <ele>1003.7536621</ele>
        <time>2012-09-15T10:05:53Z</time>
      </trkpt>
      <trkpt lat="44.11666" lon="7.08384">
        <ele>1002.7922363</ele>
        <time>2012-09-15T10:06:04Z</time>
      </trkpt>
      <trkpt lat="44.11632" lon="7.0834">
        <ele>1000.8696289</ele>
        <time>2012-09-15T10:06:16Z</time>
      </trkpt>
      <trkpt lat="44.11624" lon="7.08327">
        <ele>997.9858398</ele>
        <time>2012-09-15T10:06:24Z</time>
      </trkpt>
      <trkpt lat="44.1162" lon="7.08366">
        <ele>993.6599121</ele>
        <time>2012-09-15T10:06:42Z</time>
      </trkpt>
      <trkpt lat="44.11614" lon="7.08388">
        <ele>990.7758789</ele>
        <time>2012-09-15T10:06:49Z</time>
      </trkpt>
      <trkpt lat="44.11602" lon="7.08451">
        <ele>981.1628418</ele>
        <time>2012-09-15T10:07:06Z</time>
      </trkpt>
      <trkpt lat="44.11583" lon="7.08458">
        <ele>976.8369141</ele>
        <time>2012-09-15T10:07:11Z</time>
      </trkpt>
      <trkpt lat="44.11571" lon="7.08485">
        <ele>975.3947754</ele>
        <time>2012-09-15T10:07:17Z</time>
      </trkpt>
      <trkpt lat="44.11552" lon="7.0858">
        <ele>964.8203125</ele>
        <time>2012-09-15T10:07:34Z</time>
      </trkpt>
      <trkpt lat="44.11563" lon="7.08542">
        <ele>962.8977051</ele>
        <time>2012-09-15T10:07:36Z</time>
      </trkpt>
      <trkpt lat="44.11569" lon="7.08573">
        <ele>954.2458496</ele>
        <time>2012-09-15T10:07:50Z</time>
      </trkpt>
      <trkpt lat="44.11485" lon="7.08551">
        <ele>953.7651367</ele>
        <time>2012-09-15T10:09:11Z</time>
      </trkpt>
      <trkpt lat="44.11442" lon="7.08511">
        <ele>951.8425293</ele>
        <time>2012-09-15T10:09:23Z</time>
      </trkpt>
      <trkpt lat="44.1142" lon="7.08434">
        <ele>950.4006348</ele>
        <time>2012-09-15T10:09:40Z</time>
      </trkpt>
      <trkpt lat="44.11404" lon="7.08423">
        <ele>950.4006348</ele>
        <time>2012-09-15T10:09:45Z</time>
      </trkpt>
      <trkpt lat="44.11376" lon="7.08465">
        <ele>952.8037109</ele>
        <time>2012-09-15T10:10:01Z</time>
      </trkpt>
      <trkpt lat="44.11343" lon="7.08485">
        <ele>952.8037109</ele>
        <time>2012-09-15T10:10:12Z</time>
      </trkpt>
      <trkpt lat="44.11317" lon="7.08585">
        <ele>957.6105957</ele>
        <time>2012-09-15T10:10:46Z</time>
      </trkpt>
      <trkpt lat="44.11275" lon="7.08624">
        <ele>960.4943848</ele>
        <time>2012-09-15T10:11:06Z</time>
      </trkpt>
      <trkpt lat="44.11242" lon="7.08677">
        <ele>962.4169922</ele>
        <time>2012-09-15T10:11:26Z</time>
      </trkpt>
      <trkpt lat="44.11171" lon="7.08692">
        <ele>963.8588867</ele>
        <time>2012-09-15T10:11:51Z</time>
      </trkpt>
      <trkpt lat="44.11146" lon="7.08799">
        <ele>966.262207</ele>
        <time>2012-09-15T10:12:24Z</time>
      </trkpt>
      <trkpt lat="44.11109" lon="7.08867">
        <ele>969.6269531</ele>
        <time>2012-09-15T10:12:49Z</time>
      </trkpt>
      <trkpt lat="44.11083" lon="7.0889">
        <ele>971.5493164</ele>
        <time>2012-09-15T10:13:03Z</time>
      </trkpt>
      <trkpt lat="44.11084" lon="7.08925">
        <ele>972.5109863</ele>
        <time>2012-09-15T10:13:15Z</time>
      </trkpt>
      <trkpt lat="44.1106" lon="7.08977">
        <ele>975.8754883</ele>
        <time>2012-09-15T10:13:38Z</time>
      </trkpt>
      <trkpt lat="44.11006" lon="7.09054">
        <ele>981.1628418</ele>
        <time>2012-09-15T10:14:16Z</time>
      </trkpt>
      <trkpt lat="44.10978" lon="7.09069">
        <ele>982.6047363</ele>
        <time>2012-09-15T10:14:31Z</time>
      </trkpt>
      <trkpt lat="44.10979" lon="7.09132">
        <ele>984.0466309</ele>
        <time>2012-09-15T10:14:51Z</time>
      </trkpt>
      <trkpt lat="44.10966" lon="7.09149">
        <ele>985.0080566</ele>
        <time>2012-09-15T10:14:58Z</time>
      </trkpt>
      <trkpt lat="44.10902" lon="7.09195">
        <ele>986.9304199</ele>
        <time>2012-09-15T10:15:34Z</time>
      </trkpt>
      <trkpt lat="44.10865" lon="7.09283">
        <ele>989.8146973</ele>
        <time>2012-09-15T10:16:15Z</time>
      </trkpt>
      <trkpt lat="44.10834" lon="7.09316">
        <ele>991.2565918</ele>
        <time>2012-09-15T10:16:33Z</time>
      </trkpt>
      <trkpt lat="44.10755" lon="7.09267">
        <ele>996.0632324</ele>
        <time>2012-09-15T10:17:07Z</time>
      </trkpt>
      <trkpt lat="44.10698" lon="7.09371">
        <ele>1000.8696289</ele>
        <time>2012-09-15T10:17:49Z</time>
      </trkpt>
      <trkpt lat="44.10652" lon="7.09381">
        <ele>1002.7922363</ele>
        <time>2012-09-15T10:18:06Z</time>
      </trkpt>
      <trkpt lat="44.10636" lon="7.09329">
        <ele>1005.1958008</ele>
        <time>2012-09-15T10:18:23Z</time>
      </trkpt>
      <trkpt lat="44.10614" lon="7.09307">
        <ele>1006.6376953</ele>
        <time>2012-09-15T10:18:37Z</time>
      </trkpt>
      <trkpt lat="44.10527" lon="7.09407">
        <ele>1012.4055176</ele>
        <time>2012-09-15T10:19:26Z</time>
      </trkpt>
      <trkpt lat="44.10444" lon="7.09456">
        <ele>1019.1347656</ele>
        <time>2012-09-15T10:20:07Z</time>
      </trkpt>
      <trkpt lat="44.10308" lon="7.09457">
        <ele>1026.8254395</ele>
        <time>2012-09-15T10:21:10Z</time>
      </trkpt>
      <trkpt lat="44.10269" lon="7.09448">
        <ele>1028.7480469</ele>
        <time>2012-09-15T10:21:31Z</time>
      </trkpt>
      <trkpt lat="44.10208" lon="7.09479">
        <ele>1033.0737305</ele>
        <time>2012-09-15T10:22:07Z</time>
      </trkpt>
      <trkpt lat="44.10127" lon="7.09518">
        <ele>1036.4387207</ele>
        <time>2012-09-15T10:22:44Z</time>
      </trkpt>
      <trkpt lat="44.09965" lon="7.09513">
        <ele>1044.6096191</ele>
        <time>2012-09-15T10:23:45Z</time>
      </trkpt>
      <trkpt lat="44.09871" lon="7.09461">
        <ele>1050.3776855</ele>
        <time>2012-09-15T10:24:24Z</time>
      </trkpt>
      <trkpt lat="44.09827" lon="7.09487">
        <ele>1055.1843262</ele>
        <time>2012-09-15T10:24:48Z</time>
      </trkpt>
      <trkpt lat="44.09773" lon="7.09521">
        <ele>1049.8969727</ele>
        <time>2012-09-15T10:28:18Z</time>
      </trkpt>
      <trkpt lat="44.09688" lon="7.0952">
        <ele>1042.206543</ele>
        <time>2012-09-15T10:28:32Z</time>
      </trkpt>
      <trkpt lat="44.09631" lon="7.09582">
        <ele>1036.9191895</ele>
        <time>2012-09-15T10:28:40Z</time>
      </trkpt>
      <trkpt lat="44.09561" lon="7.09608">
        <ele>1031.1513672</ele>
        <time>2012-09-15T10:28:48Z</time>
      </trkpt>
      <trkpt lat="44.09485" lon="7.09656">
        <ele>1022.9802246</ele>
        <time>2012-09-15T10:28:57Z</time>
      </trkpt>
      <trkpt lat="44.09395" lon="7.09662">
        <ele>1017.2121582</ele>
        <time>2012-09-15T10:29:06Z</time>
      </trkpt>
      <trkpt lat="44.09345" lon="7.09628">
        <ele>1012.4055176</ele>
        <time>2012-09-15T10:29:12Z</time>
      </trkpt>
      <trkpt lat="44.09311" lon="7.09541">
        <ele>1006.6376953</ele>
        <time>2012-09-15T10:29:21Z</time>
      </trkpt>
      <trkpt lat="44.09263" lon="7.09505">
        <ele>1002.3115234</ele>
        <time>2012-09-15T10:29:28Z</time>
      </trkpt>
      <trkpt lat="44.09216" lon="7.09504">
        <ele>998.9470215</ele>
        <time>2012-09-15T10:29:34Z</time>
      </trkpt>
      <trkpt lat="44.0913" lon="7.09552">
        <ele>992.2180176</ele>
        <time>2012-09-15T10:29:45Z</time>
      </trkpt>
      <trkpt lat="44.09088" lon="7.0957">
        <ele>988.3728027</ele>
        <time>2012-09-15T10:29:50Z</time>
      </trkpt>
      <trkpt lat="44.09049" lon="7.09555">
        <ele>985.4885254</ele>
        <time>2012-09-15T10:29:58Z</time>
      </trkpt>
      <trkpt lat="44.08994" lon="7.09461">
        <ele>979.7207031</ele>
        <time>2012-09-15T10:30:12Z</time>
      </trkpt>
      <trkpt lat="44.08987" lon="7.09455">
        <ele>977.317627</ele>
        <time>2012-09-15T10:30:19Z</time>
      </trkpt>
      <trkpt lat="44.08985" lon="7.09462">
        <ele>973.9528809</ele>
        <time>2012-09-15T10:30:26Z</time>
      </trkpt>
      <trkpt lat="44.0898" lon="7.09448">
        <ele>972.0302734</ele>
        <time>2012-09-15T10:30:30Z</time>
      </trkpt>
      <trkpt lat="44.08991" lon="7.09483">
        <ele>967.7041016</ele>
        <time>2012-09-15T10:30:39Z</time>
      </trkpt>
      <trkpt lat="44.08977" lon="7.09506">
        <ele>965.7817383</ele>
        <time>2012-09-15T10:30:41Z</time>
      </trkpt>
      <trkpt lat="44.08987" lon="7.09564">
        <ele>958.5717773</ele>
        <time>2012-09-15T10:30:54Z</time>
      </trkpt>
      <trkpt lat="44.09006" lon="7.09594">
        <ele>955.2070313</ele>
        <time>2012-09-15T10:32:46Z</time>
      </trkpt>
      <trkpt lat="44.09047" lon="7.09637">
        <ele>946.5554199</ele>
        <time>2012-09-15T10:33:03Z</time>
      </trkpt>
      <trkpt lat="44.08933" lon="7.0961">
        <ele>928.7709961</ele>
        <time>2012-09-15T10:33:44Z</time>
      </trkpt>
      <trkpt lat="44.08921" lon="7.09585">
        <ele>926.3676758</ele>
        <time>2012-09-15T10:33:51Z</time>
      </trkpt>
      <trkpt lat="44.08901" lon="7.09473">
        <ele>914.8317871</ele>
        <time>2012-09-15T10:34:12Z</time>
      </trkpt>
      <trkpt lat="44.0891" lon="7.09401">
        <ele>906.6604004</ele>
        <time>2012-09-15T10:34:28Z</time>
      </trkpt>
      <trkpt lat="44.08872" lon="7.09379">
        <ele>905.6992188</ele>
        <time>2012-09-15T10:34:32Z</time>
      </trkpt>
      <trkpt lat="44.08907" lon="7.09413">
        <ele>904.2573242</ele>
        <time>2012-09-15T10:34:35Z</time>
      </trkpt>
      <trkpt lat="44.08878" lon="7.09477">
        <ele>897.5280762</ele>
        <time>2012-09-15T10:34:51Z</time>
      </trkpt>
      <trkpt lat="44.08854" lon="7.095">
        <ele>893.2021484</ele>
        <time>2012-09-15T10:35:09Z</time>
      </trkpt>
      <trkpt lat="44.08834" lon="7.09589">
        <ele>881.6662598</ele>
        <time>2012-09-15T10:35:59Z</time>
      </trkpt>
      <trkpt lat="44.08888" lon="7.09659">
        <ele>872.0529785</ele>
        <time>2012-09-15T10:36:26Z</time>
      </trkpt>
      <trkpt lat="44.0889" lon="7.09664">
        <ele>869.6499023</ele>
        <time>2012-09-15T10:36:30Z</time>
      </trkpt>
      <trkpt lat="44.08882" lon="7.09644">
        <ele>867.7270508</ele>
        <time>2012-09-15T10:36:34Z</time>
      </trkpt>
      <trkpt lat="44.08855" lon="7.09652">
        <ele>865.8046875</ele>
        <time>2012-09-15T10:36:37Z</time>
      </trkpt>
      <trkpt lat="44.08793" lon="7.09639">
        <ele>855.7106934</ele>
        <time>2012-09-15T10:36:50Z</time>
      </trkpt>
      <trkpt lat="44.08775" lon="7.09599">
        <ele>852.8266602</ele>
        <time>2012-09-15T10:36:54Z</time>
      </trkpt>
      <trkpt lat="44.08824" lon="7.09426">
        <ele>836.484375</ele>
        <time>2012-09-15T10:37:17Z</time>
      </trkpt>
      <trkpt lat="44.08826" lon="7.09369">
        <ele>828.7939453</ele>
        <time>2012-09-15T10:37:25Z</time>
      </trkpt>
      <trkpt lat="44.08792" lon="7.09467">
        <ele>817.2580566</ele>
        <time>2012-09-15T10:38:05Z</time>
      </trkpt>
      <trkpt lat="44.08726" lon="7.09543">
        <ele>806.6833496</ele>
        <time>2012-09-15T10:38:19Z</time>
      </trkpt>
      <trkpt lat="44.08662" lon="7.09643">
        <ele>793.7055664</ele>
        <time>2012-09-15T10:38:35Z</time>
      </trkpt>
      <trkpt lat="44.08617" lon="7.09712">
        <ele>781.689209</ele>
        <time>2012-09-15T10:38:49Z</time>
      </trkpt>
      <trkpt lat="44.08653" lon="7.09822">
        <ele>769.6728516</ele>
        <time>2012-09-15T10:39:22Z</time>
      </trkpt>
      <trkpt lat="44.08655" lon="7.09808">
        <ele>767.2695313</ele>
        <time>2012-09-15T10:39:29Z</time>
      </trkpt>
      <trkpt lat="44.08659" lon="7.09883">
        <ele>750.4465332</ele>
        <time>2012-09-15T10:39:59Z</time>
      </trkpt>
      <trkpt lat="44.08671" lon="7.09895">
        <ele>747.5622559</ele>
        <time>2012-09-15T10:40:06Z</time>
      </trkpt>
      <trkpt lat="44.08664" lon="7.09903">
        <ele>743.717041</ele>
        <time>2012-09-15T10:40:14Z</time>
      </trkpt>
      <trkpt lat="44.08673" lon="7.09906">
        <ele>740.3525391</ele>
        <time>2012-09-15T10:40:23Z</time>
      </trkpt>
      <trkpt lat="44.08665" lon="7.09912">
        <ele>737.4685059</ele>
        <time>2012-09-15T10:40:31Z</time>
      </trkpt>
      <trkpt lat="44.08688" lon="7.09915">
        <ele>731.2199707</ele>
        <time>2012-09-15T10:40:43Z</time>
      </trkpt>
      <trkpt lat="44.08708" lon="7.09955">
        <ele>719.6843262</ele>
        <time>2012-09-15T10:40:59Z</time>
      </trkpt>
      <trkpt lat="44.08712" lon="7.09983">
        <ele>714.8774414</ele>
        <time>2012-09-15T10:41:08Z</time>
      </trkpt>
      <trkpt lat="44.0869" lon="7.10046">
        <ele>698.5349121</ele>
        <time>2012-09-15T10:41:36Z</time>
      </trkpt>
      <trkpt lat="44.08692" lon="7.10054">
        <ele>697.0930176</ele>
        <time>2012-09-15T10:41:38Z</time>
      </trkpt>
      <trkpt lat="44.08699" lon="7.10081">
        <ele>689.8833008</ele>
        <time>2012-09-15T10:45:11Z</time>
      </trkpt>
      <trkpt lat="44.08689" lon="7.10094">
        <ele>684.1154785</ele>
        <time>2012-09-15T10:45:21Z</time>
      </trkpt>
      <trkpt lat="44.08702" lon="7.10113">
        <ele>679.7893066</ele>
        <time>2012-09-15T10:45:58Z</time>
      </trkpt>
      <trkpt lat="44.0869" lon="7.10122">
        <ele>673.5410156</ele>
        <time>2012-09-15T10:46:56Z</time>
      </trkpt>
      <trkpt lat="44.08691" lon="7.10157">
        <ele>664.4082031</ele>
        <time>2012-09-15T10:47:09Z</time>
      </trkpt>
      <trkpt lat="44.08702" lon="7.10169">
        <ele>657.6791992</ele>
        <time>2012-09-15T10:47:19Z</time>
      </trkpt>
      <trkpt lat="44.08697" lon="7.1019">
        <ele>649.9885254</ele>
        <time>2012-09-15T10:47:31Z</time>
      </trkpt>
      <trkpt lat="44.08687" lon="7.10196">
        <ele>647.5852051</ele>
        <time>2012-09-15T10:47:36Z</time>
      </trkpt>
      <trkpt lat="44.08682" lon="7.10215">
        <ele>639.8947754</ele>
        <time>2012-09-15T10:47:53Z</time>
      </trkpt>
      <trkpt lat="44.08664" lon="7.10215">
        <ele>633.6459961</ele>
        <time>2012-09-15T10:48:03Z</time>
      </trkpt>
      <trkpt lat="44.08676" lon="7.1023">
        <ele>631.2429199</ele>
        <time>2012-09-15T10:49:40Z</time>
      </trkpt>
      <trkpt lat="44.0868" lon="7.10235">
        <ele>627.8781738</ele>
        <time>2012-09-15T10:49:44Z</time>
      </trkpt>
      <trkpt lat="44.08677" lon="7.1027">
        <ele>618.7456055</ele>
        <time>2012-09-15T10:50:02Z</time>
      </trkpt>
      <trkpt lat="44.08685" lon="7.1027">
        <ele>616.3422852</ele>
        <time>2012-09-15T10:50:16Z</time>
      </trkpt>
      <trkpt lat="44.08634" lon="7.10304">
        <ele>599.0385742</ele>
        <time>2012-09-15T10:50:41Z</time>
      </trkpt>
      <trkpt lat="44.08595" lon="7.10272">
        <ele>590.3869629</ele>
        <time>2012-09-15T10:51:13Z</time>
      </trkpt>
      <trkpt lat="44.08594" lon="7.10256">
        <ele>586.5415039</ele>
        <time>2012-09-15T10:51:21Z</time>
      </trkpt>
      <trkpt lat="44.0859" lon="7.10256">
        <ele>584.6188965</ele>
        <time>2012-09-15T10:51:26Z</time>
      </trkpt>
      <trkpt lat="44.08589" lon="7.10257">
        <ele>582.2155762</ele>
        <time>2012-09-15T10:51:29Z</time>
      </trkpt>
      <trkpt lat="44.08589" lon="7.10251">
        <ele>579.8122559</ele>
        <time>2012-09-15T10:51:34Z</time>
      </trkpt>
      <trkpt lat="44.08574" lon="7.10294">
        <ele>570.1989746</ele>
        <time>2012-09-15T10:51:47Z</time>
      </trkpt>
      <trkpt lat="44.08574" lon="7.10302">
        <ele>565.873291</ele>
        <time>2012-09-15T10:51:55Z</time>
      </trkpt>
      <trkpt lat="44.08573" lon="7.10295">
        <ele>565.3925781</ele>
        <time>2012-09-15T10:51:59Z</time>
      </trkpt>
      <trkpt lat="44.08576" lon="7.10305">
        <ele>562.9892578</ele>
        <time>2012-09-15T10:52:04Z</time>
      </trkpt>
      <trkpt lat="44.0857" lon="7.10306">
        <ele>560.1052246</ele>
        <time>2012-09-15T10:52:11Z</time>
      </trkpt>
      <trkpt lat="44.08581" lon="7.10344">
        <ele>558.1828613</ele>
        <time>2012-09-15T10:53:07Z</time>
      </trkpt>
      <trkpt lat="44.08635" lon="7.10383">
        <ele>553.8566895</ele>
        <time>2012-09-15T10:53:15Z</time>
      </trkpt>
      <trkpt lat="44.08677" lon="7.10366">
        <ele>550.0114746</ele>
        <time>2012-09-15T10:53:20Z</time>
      </trkpt>
      <trkpt lat="44.08763" lon="7.10433">
        <ele>540.8789063</ele>
        <time>2012-09-15T10:53:34Z</time>
      </trkpt>
      <trkpt lat="44.08833" lon="7.10595">
        <ele>530.7851563</ele>
        <time>2012-09-15T10:53:50Z</time>
      </trkpt>
      <trkpt lat="44.08872" lon="7.10645">
        <ele>526.4591064</ele>
        <time>2012-09-15T10:53:55Z</time>
      </trkpt>
      <trkpt lat="44.08872" lon="7.10686">
        <ele>524.0557861</ele>
        <time>2012-09-15T10:53:59Z</time>
      </trkpt>
      <trkpt lat="44.08842" lon="7.10712">
        <ele>524.0557861</ele>
        <time>2012-09-15T10:54:04Z</time>
      </trkpt>
      <trkpt lat="44.08818" lon="7.10706">
        <ele>526.4591064</ele>
        <time>2012-09-15T10:54:29Z</time>
      </trkpt>
    </trkseg>
  </trk>
</gpx>